sensor_id;sensor_type;location;lat;lon;timestamp;temperature;humidity
42867;DHT22;39461;40.948;73.006;2022-09-09T03:20:12;25.00;64.20
42867;DHT22;39461;40.948;73.006;2022-09-09T03:22:45;25.20;60.20
42867;DHT22;39461;40.948;73.006;2022-09-09T03:25:22;25.30;59.70
42867;DHT22;39461;40.948;73.006;2022-09-09T03:27:55;25.40;59.90
42867;DHT22;39461;40.948;73.006;2022-09-09T03:30:30;25.50;58.70
42867;DHT22;39461;40.948;73.006;2022-09-09T03:33:05;25.60;58.50
42867;DHT22;39461;40.948;73.006;2022-09-09T03:35:34;25.60;58.10
42867;DHT22;39461;40.948;73.006;2022-09-09T03:38:07;25.80;58.90
42867;DHT22;39461;40.948;73.006;2022-09-09T03:40:49;26.00;58.20
42867;DHT22;39461;40.948;73.006;2022-09-09T03:43:26;26.10;57.10
42867;DHT22;39461;40.948;73.006;2022-09-09T03:45:58;26.30;57.20
42867;DHT22;39461;40.948;73.006;2022-09-09T03:48:33;26.30;56.60
42867;DHT22;39461;40.948;73.006;2022-09-09T03:51:06;26.40;56.80
42867;DHT22;39461;40.948;73.006;2022-09-09T03:53:42;26.40;56.00
42867;DHT22;39461;40.948;73.006;2022-09-09T03:56:11;26.50;56.20
42867;DHT22;39461;40.948;73.006;2022-09-09T03:58:43;26.70;55.80
42867;DHT22;39461;40.948;73.006;2022-09-09T04:01:16;26.60;55.50
42867;DHT22;39461;40.948;73.006;2022-09-09T04:03:58;26.80;55.70
42867;DHT22;39461;40.948;73.006;2022-09-09T04:06:31;26.90;55.50
42867;DHT22;39461;40.948;73.006;2022-09-09T04:09:04;27.00;55.50
42867;DHT22;39461;40.948;73.006;2022-09-09T04:11:37;27.10;55.70
42867;DHT22;39461;40.948;73.006;2022-09-09T04:14:10;27.30;55.10
42867;DHT22;39461;40.948;73.006;2022-09-09T04:17:10;27.30;55.80
42867;DHT22;39461;40.948;73.006;2022-09-09T04:19:44;27.40;54.90
42867;DHT22;39461;40.948;73.006;2022-09-09T04:22:17;27.40;54.80
42867;DHT22;39461;40.948;73.006;2022-09-09T04:24:50;27.50;54.90
42867;DHT22;39461;40.948;73.006;2022-09-09T04:27:19;27.60;55.10
42867;DHT22;39461;40.948;73.006;2022-09-09T04:29:51;27.70;55.00
42867;DHT22;39461;40.948;73.006;2022-09-09T04:32:26;27.70;54.70
42867;DHT22;39461;40.948;73.006;2022-09-09T04:34:59;27.80;54.00
42867;DHT22;39461;40.948;73.006;2022-09-09T04:37:32;27.80;53.10
42867;DHT22;39461;40.948;73.006;2022-09-09T04:40:06;27.90;54.70
42867;DHT22;39461;40.948;73.006;2022-09-09T04:42:41;28.20;54.40
42867;DHT22;39461;40.948;73.006;2022-09-09T04:45:16;28.20;54.00
42867;DHT22;39461;40.948;73.006;2022-09-09T04:47:48;28.30;53.50
42867;DHT22;39461;40.948;73.006;2022-09-09T04:50:23;28.40;53.50
42867;DHT22;39461;40.948;73.006;2022-09-09T04:53:03;28.50;53.20
42867;DHT22;39461;40.948;73.006;2022-09-09T04:55:37;28.50;53.10
42867;DHT22;39461;40.948;73.006;2022-09-09T04:58:09;28.60;53.40
42867;DHT22;39461;40.948;73.006;2022-09-09T05:00:42;28.60;53.40
42867;DHT22;39461;40.948;73.006;2022-09-09T05:03:15;28.60;53.60
42867;DHT22;39461;40.948;73.006;2022-09-09T05:05:53;28.60;53.50
42867;DHT22;39461;40.948;73.006;2022-09-09T05:08:28;28.60;53.70
42867;DHT22;39461;40.948;73.006;2022-09-09T05:11:14;28.80;53.90
42867;DHT22;39461;40.948;73.006;2022-09-09T05:13:42;28.70;53.80
42867;DHT22;39461;40.948;73.006;2022-09-09T05:16:16;28.80;54.00
42867;DHT22;39461;40.948;73.006;2022-09-09T05:18:50;29.00;54.00
42867;DHT22;39461;40.948;73.006;2022-09-09T05:21:25;29.10;53.60
42867;DHT22;39461;40.948;73.006;2022-09-09T05:24:00;29.20;53.60
42867;DHT22;39461;40.948;73.006;2022-09-09T05:26:37;29.20;54.10
42867;DHT22;39461;40.948;73.006;2022-09-09T05:29:10;29.30;54.60
42867;DHT22;39461;40.948;73.006;2022-09-09T05:31:49;29.30;54.40
42867;DHT22;39461;40.948;73.006;2022-09-09T05:34:22;29.40;53.20
42867;DHT22;39461;40.948;73.006;2022-09-09T05:36:57;29.50;52.50
42867;DHT22;39461;40.948;73.006;2022-09-09T05:39:30;29.70;52.10
42867;DHT22;39461;40.948;73.006;2022-09-09T05:42:12;29.70;52.50
42867;DHT22;39461;40.948;73.006;2022-09-09T05:44:45;29.70;52.20
42867;DHT22;39461;40.948;73.006;2022-09-09T05:47:18;29.80;52.80
42867;DHT22;39461;40.948;73.006;2022-09-09T05:49:50;29.90;52.50
42867;DHT22;39461;40.948;73.006;2022-09-09T05:52:23;29.70;52.90
42867;DHT22;39461;40.948;73.006;2022-09-09T05:54:57;29.90;53.20
42867;DHT22;39461;40.948;73.006;2022-09-09T05:57:36;29.70;53.40
42867;DHT22;39461;40.948;73.006;2022-09-09T06:00:04;29.80;53.40
42867;DHT22;39461;40.948;73.006;2022-09-09T06:02:43;29.90;52.50
42867;DHT22;39461;40.948;73.006;2022-09-09T06:05:19;29.90;52.20
42867;DHT22;39461;40.948;73.006;2022-09-09T06:07:55;30.00;52.40
42867;DHT22;39461;40.948;73.006;2022-09-09T06:10:29;30.20;51.80
42867;DHT22;39461;40.948;73.006;2022-09-09T06:13:02;30.20;51.40
42867;DHT22;39461;40.948;73.006;2022-09-09T06:15:37;30.10;50.90
42867;DHT22;39461;40.948;73.006;2022-09-09T06:18:04;30.10;50.80
42867;DHT22;39461;40.948;73.006;2022-09-09T06:20:36;30.00;50.90
42867;DHT22;39461;40.948;73.006;2022-09-09T06:23:09;30.10;49.80
42867;DHT22;39461;40.948;73.006;2022-09-09T06:25:38;30.20;50.10
42867;DHT22;39461;40.948;73.006;2022-09-09T06:28:06;30.20;49.40
42867;DHT22;39461;40.948;73.006;2022-09-09T06:30:39;30.20;49.50
42867;DHT22;39461;40.948;73.006;2022-09-09T06:33:15;30.40;49.60
42867;DHT22;39461;40.948;73.006;2022-09-09T06:35:53;30.40;49.50
42867;DHT22;39461;40.948;73.006;2022-09-09T06:38:28;30.60;49.40
42867;DHT22;39461;40.948;73.006;2022-09-09T06:41:01;30.60;49.40
42867;DHT22;39461;40.948;73.006;2022-09-09T06:43:37;30.70;49.00
42867;DHT22;39461;40.948;73.006;2022-09-09T06:46:20;30.70;49.10
42867;DHT22;39461;40.948;73.006;2022-09-09T06:48:56;30.70;49.50
42867;DHT22;39461;40.948;73.006;2022-09-09T06:51:34;30.50;50.50
42867;DHT22;39461;40.948;73.006;2022-09-09T06:54:11;30.60;50.70
42867;DHT22;39461;40.948;73.006;2022-09-09T06:56:45;30.60;50.20
42867;DHT22;39461;40.948;73.006;2022-09-09T06:59:16;30.60;51.70
42867;DHT22;39461;40.948;73.006;2022-09-09T07:01:55;30.80;52.30
42867;DHT22;39461;40.948;73.006;2022-09-09T07:04:32;30.90;52.20
42867;DHT22;39461;40.948;73.006;2022-09-09T07:07:05;31.00;52.40
42867;DHT22;39461;40.948;73.006;2022-09-09T07:09:40;31.10;52.40
42867;DHT22;39461;40.948;73.006;2022-09-09T07:12:13;31.10;53.30
42867;DHT22;39461;40.948;73.006;2022-09-09T07:14:48;31.10;52.90
42867;DHT22;39461;40.948;73.006;2022-09-09T07:17:27;31.10;53.10
42867;DHT22;39461;40.948;73.006;2022-09-09T07:20:07;31.10;53.40
42867;DHT22;39461;40.948;73.006;2022-09-09T07:22:42;31.10;54.30
42867;DHT22;39461;40.948;73.006;2022-09-09T07:25:15;31.20;54.50
42867;DHT22;39461;40.948;73.006;2022-09-09T07:27:50;31.30;54.70
42867;DHT22;39461;40.948;73.006;2022-09-09T07:30:23;31.30;54.00
42867;DHT22;39461;40.948;73.006;2022-09-09T07:32:55;31.40;53.80
42867;DHT22;39461;40.948;73.006;2022-09-09T07:35:31;31.50;54.00
42867;DHT22;39461;40.948;73.006;2022-09-09T07:38:05;31.50;53.70
42867;DHT22;39461;40.948;73.006;2022-09-09T07:40:35;31.70;54.70
42867;DHT22;39461;40.948;73.006;2022-09-09T07:43:09;31.50;54.40
42867;DHT22;39461;40.948;73.006;2022-09-09T07:45:41;31.50;54.80
42867;DHT22;39461;40.948;73.006;2022-09-09T07:48:16;31.60;54.50
42867;DHT22;39461;40.948;73.006;2022-09-09T07:50:51;31.60;55.40
42867;DHT22;39461;40.948;73.006;2022-09-09T07:53:57;31.60;55.80
42867;DHT22;39461;40.948;73.006;2022-09-09T07:56:32;31.60;56.60
42867;DHT22;39461;40.948;73.006;2022-09-09T07:59:08;31.60;56.20
42867;DHT22;39461;40.948;73.006;2022-09-09T08:01:49;31.70;56.20
42867;DHT22;39461;40.948;73.006;2022-09-09T08:04:25;31.60;55.70
42867;DHT22;39461;40.948;73.006;2022-09-09T08:07:00;31.70;55.10
42867;DHT22;39461;40.948;73.006;2022-09-09T08:09:29;31.70;54.60
42867;DHT22;39461;40.948;73.006;2022-09-09T08:12:05;31.70;54.30
42867;DHT22;39461;40.948;73.006;2022-09-09T08:14:40;31.80;54.70
42867;DHT22;39461;40.948;73.006;2022-09-09T08:17:09;31.90;55.40
42867;DHT22;39461;40.948;73.006;2022-09-09T08:19:42;31.80;54.80
42867;DHT22;39461;40.948;73.006;2022-09-09T08:22:16;31.90;54.90
42867;DHT22;39461;40.948;73.006;2022-09-09T08:24:51;32.00;54.60
42867;DHT22;39461;40.948;73.006;2022-09-09T08:27:18;32.00;54.10
42867;DHT22;39461;40.948;73.006;2022-09-09T08:29:51;32.00;54.90
42867;DHT22;39461;40.948;73.006;2022-09-09T08:32:25;32.00;54.90
42867;DHT22;39461;40.948;73.006;2022-09-09T08:35:00;32.10;54.90
42867;DHT22;39461;40.948;73.006;2022-09-09T08:37:39;32.00;54.70
42867;DHT22;39461;40.948;73.006;2022-09-09T08:40:22;32.20;54.30
42867;DHT22;39461;40.948;73.006;2022-09-09T08:43:02;32.10;53.70
42867;DHT22;39461;40.948;73.006;2022-09-09T08:48:50;32.20;53.20
42867;DHT22;39461;40.948;73.006;2022-09-09T08:51:28;32.10;53.90
42867;DHT22;39461;40.948;73.006;2022-09-09T08:54:04;31.90;54.10
42867;DHT22;39461;40.948;73.006;2022-09-09T08:56:38;31.90;53.70
42867;DHT22;39461;40.948;73.006;2022-09-09T08:59:16;32.00;53.70
42867;DHT22;39461;40.948;73.006;2022-09-09T09:02:08;32.10;53.90
42867;DHT22;39461;40.948;73.006;2022-09-09T09:05:07;32.20;53.90
42867;DHT22;39461;40.948;73.006;2022-09-09T09:08:12;32.30;54.30
42867;DHT22;39461;40.948;73.006;2022-09-09T09:10:48;32.10;53.90
42867;DHT22;39461;40.948;73.006;2022-09-09T09:13:44;32.20;54.10
42867;DHT22;39461;40.948;73.006;2022-09-09T09:16:49;32.40;54.50
42867;DHT22;39461;40.948;73.006;2022-09-09T09:19:27;32.20;54.10
42867;DHT22;39461;40.948;73.006;2022-09-09T09:22:43;32.10;54.50
42867;DHT22;39461;40.948;73.006;2022-09-09T09:25:27;32.20;55.10
42867;DHT22;39461;40.948;73.006;2022-09-09T09:28:18;32.10;55.20
42867;DHT22;39461;40.948;73.006;2022-09-09T09:30:59;32.10;54.40
42867;DHT22;39461;40.948;73.006;2022-09-09T09:35:59;32.00;53.60
42867;DHT22;39461;40.948;73.006;2022-09-09T09:38:27;31.90;53.60
42867;DHT22;39461;40.948;73.006;2022-09-09T09:41:03;31.90;54.00
42867;DHT22;39461;40.948;73.006;2022-09-09T09:43:40;31.90;54.40
42867;DHT22;39461;40.948;73.006;2022-09-09T09:46:20;31.80;54.00
42867;DHT22;39461;40.948;73.006;2022-09-09T09:49:05;31.80;54.40
42867;DHT22;39461;40.948;73.006;2022-09-09T09:51:43;31.90;54.50
42867;DHT22;39461;40.948;73.006;2022-09-09T09:54:31;31.80;54.10
42867;DHT22;39461;40.948;73.006;2022-09-09T09:57:14;31.70;53.60
42867;DHT22;39461;40.948;73.006;2022-09-09T10:00:20;31.80;54.10
42867;DHT22;39461;40.948;73.006;2022-09-09T10:03:00;31.70;54.80
42867;DHT22;39461;40.948;73.006;2022-09-09T10:05:36;31.70;54.80
42867;DHT22;39461;40.948;73.006;2022-09-09T10:08:11;31.60;54.40
42867;DHT22;39461;40.948;73.006;2022-09-09T10:14:05;31.50;55.40
42867;DHT22;39461;40.948;73.006;2022-09-09T10:29:04;31.40;55.60
42867;DHT22;39461;40.948;73.006;2022-09-09T10:31:55;31.40;54.60
42867;DHT22;39461;40.948;73.006;2022-09-09T10:34:55;31.50;54.80
42867;DHT22;39461;40.948;73.006;2022-09-09T10:40:28;31.30;54.30
42867;DHT22;39461;40.948;73.006;2022-09-09T10:43:14;31.30;54.90
42867;DHT22;39461;40.948;73.006;2022-09-09T10:45:55;31.30;55.30
42867;DHT22;39461;40.948;73.006;2022-09-09T10:48:42;31.30;54.90
42867;DHT22;39461;40.948;73.006;2022-09-09T10:54:18;31.20;54.90
42867;DHT22;39461;40.948;73.006;2022-09-09T10:57:50;31.20;54.80
42867;DHT22;39461;40.948;73.006;2022-09-09T11:00:13;31.10;54.90
42867;DHT22;39461;40.948;73.006;2022-09-09T11:02:41;31.10;55.00
42867;DHT22;39461;40.948;73.006;2022-09-09T11:05:30;31.20;55.20
42867;DHT22;39461;40.948;73.006;2022-09-09T11:08:19;31.00;55.50
42867;DHT22;39461;40.948;73.006;2022-09-09T11:24:52;30.70;55.30
42867;DHT22;39461;40.948;73.006;2022-09-09T11:31:10;30.70;55.70
42867;DHT22;39461;40.948;73.006;2022-09-09T11:37:02;30.70;56.10
42867;DHT22;39461;40.948;73.006;2022-09-09T11:39:47;30.60;56.40
42867;DHT22;39461;40.948;73.006;2022-09-09T11:42:24;30.50;56.80
42867;DHT22;39461;40.948;73.006;2022-09-09T11:45:10;30.50;57.70
42867;DHT22;39461;40.948;73.006;2022-09-09T11:51:03;30.50;57.30
42867;DHT22;39461;40.948;73.006;2022-09-09T11:54:02;30.40;57.70
42867;DHT22;39461;40.948;73.006;2022-09-09T11:56:49;30.30;58.20
42867;DHT22;39461;40.948;73.006;2022-09-09T11:59:23;30.20;58.30
42867;DHT22;39461;40.948;73.006;2022-09-09T12:10:35;30.10;58.90
42867;DHT22;39461;40.948;73.006;2022-09-09T12:15:56;30.00;59.50
42867;DHT22;39461;40.948;73.006;2022-09-09T12:18:34;30.10;59.70
42867;DHT22;39461;40.948;73.006;2022-09-09T12:24:10;30.10;56.80
42867;DHT22;39461;40.948;73.006;2022-09-09T12:29:58;30.00;55.60
42867;DHT22;39461;40.948;73.006;2022-09-09T12:32:35;30.00;55.10
42867;DHT22;39461;40.948;73.006;2022-09-09T12:35:25;30.00;55.30
42867;DHT22;39461;40.948;73.006;2022-09-09T12:38:03;30.00;56.60
42867;DHT22;39461;40.948;73.006;2022-09-09T12:41:04;29.90;58.10
42867;DHT22;39461;40.948;73.006;2022-09-09T12:43:32;29.90;58.00
42867;DHT22;39461;40.948;73.006;2022-09-09T12:46:10;29.80;58.50
42867;DHT22;39461;40.948;73.006;2022-09-09T12:48:41;29.70;59.90
42867;DHT22;39461;40.948;73.006;2022-09-09T12:51:32;29.70;60.50
42867;DHT22;39461;40.948;73.006;2022-09-09T12:54:32;29.60;61.00
42867;DHT22;39461;40.948;73.006;2022-09-09T12:57:11;29.60;61.60
42867;DHT22;39461;40.948;73.006;2022-09-09T12:59:46;29.50;62.00
42867;DHT22;39461;40.948;73.006;2022-09-09T13:02:25;29.40;61.70
42867;DHT22;39461;40.948;73.006;2022-09-09T13:04:54;29.30;61.80
42867;DHT22;39461;40.948;73.006;2022-09-09T13:07:22;29.20;62.20
42867;DHT22;39461;40.948;73.006;2022-09-09T13:09:50;29.20;62.30
42867;DHT22;39461;40.948;73.006;2022-09-09T13:12:25;29.20;62.40
42867;DHT22;39461;40.948;73.006;2022-09-09T13:15:00;29.10;62.50
42867;DHT22;39461;40.948;73.006;2022-09-09T13:17:28;29.10;63.30
42867;DHT22;39461;40.948;73.006;2022-09-09T13:19:55;28.90;63.40
42867;DHT22;39461;40.948;73.006;2022-09-09T13:22:38;28.90;63.20
42867;DHT22;39461;40.948;73.006;2022-09-09T13:25:27;28.80;63.50
42867;DHT22;39461;40.948;73.006;2022-09-09T13:33:39;28.60;64.50
42867;DHT22;39461;40.948;73.006;2022-09-09T13:36:11;28.50;64.90
42867;DHT22;39461;40.948;73.006;2022-09-09T13:41:35;28.40;65.70
42867;DHT22;39461;40.948;73.006;2022-09-09T13:44:36;28.30;66.00
42867;DHT22;39461;40.948;73.006;2022-09-09T13:49:49;28.10;66.60
42867;DHT22;39461;40.948;73.006;2022-09-09T13:52:17;28.00;66.50
42867;DHT22;39461;40.948;73.006;2022-09-09T13:54:53;27.90;66.50
42867;DHT22;39461;40.948;73.006;2022-09-09T13:57:28;27.90;65.90
42867;DHT22;39461;40.948;73.006;2022-09-09T14:00:04;27.90;65.40
42867;DHT22;39461;40.948;73.006;2022-09-09T14:02:32;27.90;65.10
42867;DHT22;39461;40.948;73.006;2022-09-09T14:05:07;27.90;65.50
42867;DHT22;39461;40.948;73.006;2022-09-09T14:07:43;27.90;65.30
42867;DHT22;39461;40.948;73.006;2022-09-09T14:10:18;27.80;64.90
42867;DHT22;39461;40.948;73.006;2022-09-09T14:12:53;27.80;64.90
42867;DHT22;39461;40.948;73.006;2022-09-09T14:15:19;27.70;64.80
42867;DHT22;39461;40.948;73.006;2022-09-09T14:17:54;27.70;64.90
42867;DHT22;39461;40.948;73.006;2022-09-09T14:20:23;27.60;64.60
42867;DHT22;39461;40.948;73.006;2022-09-09T14:22:56;27.60;64.80
42867;DHT22;39461;40.948;73.006;2022-09-09T14:25:24;27.50;65.20
42867;DHT22;39461;40.948;73.006;2022-09-09T14:27:51;27.40;64.80
42867;DHT22;39461;40.948;73.006;2022-09-09T14:30:26;27.40;64.90
42867;DHT22;39461;40.948;73.006;2022-09-09T14:33:00;27.40;64.70
42867;DHT22;39461;40.948;73.006;2022-09-09T14:35:35;27.40;64.60
42867;DHT22;39461;40.948;73.006;2022-09-09T14:38:10;27.30;64.80
42867;DHT22;39461;40.948;73.006;2022-09-09T14:40:45;27.30;64.40
42867;DHT22;39461;40.948;73.006;2022-09-09T14:43:13;27.20;64.20
42867;DHT22;39461;40.948;73.006;2022-09-09T14:45:46;27.20;64.00
42867;DHT22;39461;40.948;73.006;2022-09-09T14:48:26;27.10;64.50
42867;DHT22;39461;40.948;73.006;2022-09-09T14:53:40;27.00;64.70
42867;DHT22;39461;40.948;73.006;2022-09-09T14:56:19;27.00;64.60
42867;DHT22;39461;40.948;73.006;2022-09-09T14:58:47;26.90;64.80
42867;DHT22;39461;40.948;73.006;2022-09-09T15:01:46;26.90;64.70
42867;DHT22;39461;40.948;73.006;2022-09-09T15:04:21;26.90;65.10
42867;DHT22;39461;40.948;73.006;2022-09-09T15:06:56;26.90;65.10
42867;DHT22;39461;40.948;73.006;2022-09-09T15:09:28;26.70;65.50
42867;DHT22;39461;40.948;73.006;2022-09-09T15:11:58;26.70;65.40
42867;DHT22;39461;40.948;73.006;2022-09-09T15:14:56;26.60;66.00
42867;DHT22;39461;40.948;73.006;2022-09-09T15:17:31;26.40;66.60
42867;DHT22;39461;40.948;73.006;2022-09-09T15:20:06;26.30;67.20
42867;DHT22;39461;40.948;73.006;2022-09-09T15:22:41;26.40;67.30
42867;DHT22;39461;40.948;73.006;2022-09-09T15:25:16;26.40;67.10
42867;DHT22;39461;40.948;73.006;2022-09-09T15:27:52;26.30;67.20
42867;DHT22;39461;40.948;73.006;2022-09-09T15:30:34;26.30;67.70
42867;DHT22;39461;40.948;73.006;2022-09-09T15:33:08;26.30;67.30
42867;DHT22;39461;40.948;73.006;2022-09-09T15:35:34;26.20;67.30
42867;DHT22;39461;40.948;73.006;2022-09-09T15:38:10;26.10;67.00
42867;DHT22;39461;40.948;73.006;2022-09-09T15:40:53;26.10;66.70
42867;DHT22;39461;40.948;73.006;2022-09-09T15:43:20;26.00;66.40
42867;DHT22;39461;40.948;73.006;2022-09-09T15:49:06;25.90;65.60
42867;DHT22;39461;40.948;73.006;2022-09-09T15:51:45;25.90;65.70
42867;DHT22;39461;40.948;73.006;2022-09-09T15:54:22;25.80;65.50
42867;DHT22;39461;40.948;73.006;2022-09-09T15:57:00;25.80;65.50
42867;DHT22;39461;40.948;73.006;2022-09-09T15:59:34;25.80;65.60
42867;DHT22;39461;40.948;73.006;2022-09-09T16:02:08;25.70;65.60
42867;DHT22;39461;40.948;73.006;2022-09-09T16:04:45;25.60;65.60
42867;DHT22;39461;40.948;73.006;2022-09-09T16:07:16;25.60;66.20
42867;DHT22;39461;40.948;73.006;2022-09-09T16:09:51;25.50;65.60
42867;DHT22;39461;40.948;73.006;2022-09-09T16:12:27;25.40;65.40
42867;DHT22;39461;40.948;73.006;2022-09-09T16:15:01;25.30;65.50
42867;DHT22;39461;40.948;73.006;2022-09-09T16:17:36;25.30;65.70
42867;DHT22;39461;40.948;73.006;2022-09-09T16:20:11;25.20;65.80
42867;DHT22;39461;40.948;73.006;2022-09-09T16:22:42;25.20;65.90
42867;DHT22;39461;40.948;73.006;2022-09-09T16:25:10;25.10;66.20
42867;DHT22;39461;40.948;73.006;2022-09-09T16:27:39;25.00;66.30
42867;DHT22;39461;40.948;73.006;2022-09-09T16:30:15;25.00;66.20
42867;DHT22;39461;40.948;73.006;2022-09-09T16:32:49;24.90;66.30
42867;DHT22;39461;40.948;73.006;2022-09-09T16:35:16;24.90;66.30
42867;DHT22;39461;40.948;73.006;2022-09-09T16:37:50;24.80;66.60
42867;DHT22;39461;40.948;73.006;2022-09-09T16:40:25;24.80;66.40
42867;DHT22;39461;40.948;73.006;2022-09-09T16:43:01;24.80;66.40
42867;DHT22;39461;40.948;73.006;2022-09-09T16:45:42;24.70;66.60
42867;DHT22;39461;40.948;73.006;2022-09-09T16:48:17;24.70;66.50
42867;DHT22;39461;40.948;73.006;2022-09-09T16:51:05;24.70;66.30
42867;DHT22;39461;40.948;73.006;2022-09-09T16:53:45;24.70;66.40
42867;DHT22;39461;40.948;73.006;2022-09-09T16:56:24;24.70;66.40
42867;DHT22;39461;40.948;73.006;2022-09-09T16:58:59;24.60;66.80
42867;DHT22;39461;40.948;73.006;2022-09-09T17:01:38;24.50;66.80
42867;DHT22;39461;40.948;73.006;2022-09-09T17:04:19;24.60;66.60
42867;DHT22;39461;40.948;73.006;2022-09-09T17:07:21;24.40;66.60
42867;DHT22;39461;40.948;73.006;2022-09-09T17:09:56;24.50;66.40
42867;DHT22;39461;40.948;73.006;2022-09-09T17:12:32;24.40;66.30
42867;DHT22;39461;40.948;73.006;2022-09-09T17:15:06;24.40;66.00
42867;DHT22;39461;40.948;73.006;2022-09-09T17:17:39;24.40;66.20
42867;DHT22;39461;40.948;73.006;2022-09-09T17:20:16;24.30;66.30
42867;DHT22;39461;40.948;73.006;2022-09-09T17:22:55;24.30;66.20
42867;DHT22;39461;40.948;73.006;2022-09-09T17:25:28;24.30;66.30
42867;DHT22;39461;40.948;73.006;2022-09-09T17:28:02;24.30;66.10
42867;DHT22;39461;40.948;73.006;2022-09-09T17:31:02;24.30;66.20
42867;DHT22;39461;40.948;73.006;2022-09-09T17:33:31;24.20;66.20
42867;DHT22;39461;40.948;73.006;2022-09-09T17:38:50;24.20;66.30
42867;DHT22;39461;40.948;73.006;2022-09-09T17:41:52;24.20;66.20
42867;DHT22;39461;40.948;73.006;2022-09-09T17:44:28;24.10;66.40
42867;DHT22;39461;40.948;73.006;2022-09-09T17:47:07;24.00;66.40
42867;DHT22;39461;40.948;73.006;2022-09-09T17:49:40;24.00;66.50
42867;DHT22;39461;40.948;73.006;2022-09-09T17:52:08;24.00;66.50
42867;DHT22;39461;40.948;73.006;2022-09-09T17:54:43;24.00;66.50
42867;DHT22;39461;40.948;73.006;2022-09-09T17:57:18;24.00;66.60
42867;DHT22;39461;40.948;73.006;2022-09-09T17:59:53;23.90;66.40
42867;DHT22;39461;40.948;73.006;2022-09-09T18:02:26;23.90;66.40
42867;DHT22;39461;40.948;73.006;2022-09-09T18:04:58;23.90;66.20
42867;DHT22;39461;40.948;73.006;2022-09-09T18:07:27;23.90;66.20
42867;DHT22;39461;40.948;73.006;2022-09-09T18:10:00;24.00;66.30
42867;DHT22;39461;40.948;73.006;2022-09-09T18:12:32;23.90;66.20
42867;DHT22;39461;40.948;73.006;2022-09-09T18:15:06;23.90;66.10
42867;DHT22;39461;40.948;73.006;2022-09-09T18:17:39;23.90;66.20
42867;DHT22;39461;40.948;73.006;2022-09-09T18:20:12;23.80;66.20
42867;DHT22;39461;40.948;73.006;2022-09-09T18:22:44;23.80;66.40
42867;DHT22;39461;40.948;73.006;2022-09-09T18:25:13;23.80;66.30
42867;DHT22;39461;40.948;73.006;2022-09-09T18:27:40;23.80;66.10
42867;DHT22;39461;40.948;73.006;2022-09-09T18:30:14;23.90;65.70
42867;DHT22;39461;40.948;73.006;2022-09-09T18:32:50;23.80;65.90
42867;DHT22;39461;40.948;73.006;2022-09-09T18:35:26;23.80;66.00
42867;DHT22;39461;40.948;73.006;2022-09-09T18:38:00;23.70;66.00
42867;DHT22;39461;40.948;73.006;2022-09-09T18:40:35;23.80;66.00
42867;DHT22;39461;40.948;73.006;2022-09-09T18:43:10;23.70;65.90
42867;DHT22;39461;40.948;73.006;2022-09-09T18:45:46;23.80;65.70
42867;DHT22;39461;40.948;73.006;2022-09-09T18:48:20;23.70;65.60
42867;DHT22;39461;40.948;73.006;2022-09-09T18:50:55;23.80;65.60
42867;DHT22;39461;40.948;73.006;2022-09-09T18:53:25;23.70;65.90
42867;DHT22;39461;40.948;73.006;2022-09-09T18:56:01;23.60;65.90
42867;DHT22;39461;40.948;73.006;2022-09-09T18:58:36;23.60;66.00
42867;DHT22;39461;40.948;73.006;2022-09-09T19:01:34;23.60;65.90
42867;DHT22;39461;40.948;73.006;2022-09-09T19:04:10;23.60;65.60
42867;DHT22;39461;40.948;73.006;2022-09-09T19:06:46;23.50;65.80
42867;DHT22;39461;40.948;73.006;2022-09-09T19:09:22;23.50;66.00
42867;DHT22;39461;40.948;73.006;2022-09-09T19:11:54;23.50;65.70
42867;DHT22;39461;40.948;73.006;2022-09-09T19:14:28;23.50;65.60
42867;DHT22;39461;40.948;73.006;2022-09-09T19:17:07;23.40;65.60
42867;DHT22;39461;40.948;73.006;2022-09-09T19:19:44;23.30;65.70
42867;DHT22;39461;40.948;73.006;2022-09-09T19:22:18;23.30;65.80
42867;DHT22;39461;40.948;73.006;2022-09-09T19:24:53;23.40;65.60
42867;DHT22;39461;40.948;73.006;2022-09-09T19:27:28;23.30;65.60
42867;DHT22;39461;40.948;73.006;2022-09-09T19:30:04;23.30;65.50
42867;DHT22;39461;40.948;73.006;2022-09-09T19:32:32;23.20;65.80
42867;DHT22;39461;40.948;73.006;2022-09-09T19:35:07;23.20;65.80
42867;DHT22;39461;40.948;73.006;2022-09-09T19:37:41;23.20;65.90
42867;DHT22;39461;40.948;73.006;2022-09-09T19:40:14;23.20;65.80
42867;DHT22;39461;40.948;73.006;2022-09-09T19:42:47;23.20;65.80
42867;DHT22;39461;40.948;73.006;2022-09-09T19:45:20;23.20;65.70
42867;DHT22;39461;40.948;73.006;2022-09-09T19:47:54;23.20;65.60
42867;DHT22;39461;40.948;73.006;2022-09-09T19:50:28;23.20;65.50
42867;DHT22;39461;40.948;73.006;2022-09-09T19:53:02;23.20;65.30
42867;DHT22;39461;40.948;73.006;2022-09-09T19:55:38;23.20;65.20
42867;DHT22;39461;40.948;73.006;2022-09-09T19:58:11;23.20;65.00
42867;DHT22;39461;40.948;73.006;2022-09-09T20:00:45;23.20;64.90
42867;DHT22;39461;40.948;73.006;2022-09-09T20:03:18;23.10;64.90
42867;DHT22;39461;40.948;73.006;2022-09-09T20:05:50;23.10;65.00
42867;DHT22;39461;40.948;73.006;2022-09-09T20:08:24;23.10;64.70
42867;DHT22;39461;40.948;73.006;2022-09-09T20:10:59;23.10;64.60
42867;DHT22;39461;40.948;73.006;2022-09-09T20:13:42;23.10;64.60
42867;DHT22;39461;40.948;73.006;2022-09-09T20:16:29;23.10;64.40
42867;DHT22;39461;40.948;73.006;2022-09-09T20:19:04;23.00;64.40
42867;DHT22;39461;40.948;73.006;2022-09-09T20:21:43;23.00;64.30
42867;DHT22;39461;40.948;73.006;2022-09-09T20:24:22;23.00;64.40
42867;DHT22;39461;40.948;73.006;2022-09-09T20:26:51;23.00;64.40
42867;DHT22;39461;40.948;73.006;2022-09-09T20:29:26;23.00;64.40
42867;DHT22;39461;40.948;73.006;2022-09-09T20:32:00;22.90;64.40
42867;DHT22;39461;40.948;73.006;2022-09-09T20:34:35;22.90;64.30
42867;DHT22;39461;40.948;73.006;2022-09-09T20:37:10;22.90;64.30
42867;DHT22;39461;40.948;73.006;2022-09-09T20:39:49;22.90;64.30
42867;DHT22;39461;40.948;73.006;2022-09-09T20:42:27;22.80;64.40
42867;DHT22;39461;40.948;73.006;2022-09-09T20:44:55;22.80;64.40
42867;DHT22;39461;40.948;73.006;2022-09-09T20:47:54;22.70;64.50
42867;DHT22;39461;40.948;73.006;2022-09-09T20:50:35;22.70;64.80
42867;DHT22;39461;40.948;73.006;2022-09-09T20:53:33;22.50;65.10
42867;DHT22;39461;40.948;73.006;2022-09-09T20:56:32;22.40;65.40
42867;DHT22;39461;40.948;73.006;2022-09-09T20:59:10;22.40;65.40
42867;DHT22;39461;40.948;73.006;2022-09-09T21:01:46;22.30;65.40